PST,Max TemperatureF,Mean TemperatureF,Min TemperatureF,Max Dew PointF,MeanDew PointF,Min DewpointF,Max Humidity, Mean Humidity, Min Humidity, Max Sea Level PressureIn, Mean Sea Level PressureIn, Min Sea Level PressureIn, Max VisibilityMiles, Mean VisibilityMiles, Min VisibilityMiles, Max Wind SpeedMPH, Mean Wind SpeedMPH, Max Gust SpeedMPH,PrecipitationIn, CloudCover, Events, WindDirDegrees
2011-11-1,53,40,28,28,17,5,48,36,14,30.30,30.17,30.00,10,8,2,20,11,24,0.00,2,Snow,357
2011-11-2,54,36,17,11,8,4,68,39,13,30.43,30.20,29.98,10,10,10,9,3,16,0.00,3,,118
2011-11-3,64,45,26,32,6,-1,82,25,8,29.98,29.73,29.51,10,9,2,24,9,37,0.00,4,Snow,172
2011-11-4,46,35,23,32,24,13,96,67,33,29.78,29.70,29.61,10,9,2,20,6,25,0.02,5,Snow,337
2011-11-5,46,29,15,19,15,10,81,54,34,29.90,29.80,29.76,10,10,8,10,5,18,0.00,4,,165
2011-11-6,48,39,32,34,31,24,93,84,42,29.95,29.86,29.76,10,7,1,16,4,,0.05,7,Rain-Snow,355
2011-11-7,46,36,25,34,28,21,93,72,42,30.21,30.09,29.97,10,10,10,9,5,,0.00,5,,9
2011-11-8,48,33,18,26,21,15,92,69,33,30.29,30.20,30.13,10,10,7,8,3,,0.01,1,,123
2011-11-9,48,34,19,26,22,16,92,66,39,30.40,30.24,30.18,10,10,8,9,3,,0.00,5,,79
2011-11-10,55,35,15,24,19,11,89,58,26,30.31,30.11,29.98,10,10,7,10,2,,0.00,3,,34
2011-11-11,50,39,28,30,23,11,66,49,32,29.95,29.84,29.70,10,10,9,15,5,,0.00,5,Rain,67
2011-11-12,57,44,32,34,28,21,79,58,34,29.86,29.79,29.71,10,10,10,15,3,,0.00,3,,175
2011-11-13,59,47,35,38,30,22,92,57,29,29.99,29.87,29.83,10,10,10,8,5,,0.02,4,Rain,148
2011-11-14,62,48,33,27,18,7,53,35,12,29.95,29.90,29.83,10,10,10,9,5,,0.00,3,,237
2011-11-15,55,40,24,26,19,11,69,46,31,30.10,30.03,29.94,10,10,10,9,5,,0.00,4,,76
2011-11-16,57,40,23,26,23,15,75,56,30,30.24,30.11,30.06,10,10,10,8,2,,0.00,2,,143
2011-11-17,64,47,30,27,24,21,69,42,22,30.12,29.93,29.75,10,10,10,14,8,,0.00,3,,210
2011-11-18,61,48,34,29,23,18,82,40,20,29.79,29.65,29.55,10,9,6,33,15,47,0.00,4,Snow,287
2011-11-19,46,38,30,27,23,19,86,60,37,29.86,29.75,29.69,10,10,10,7,4,,0.00,5,,18
2011-11-20,46,36,21,26,22,17,85,62,40,29.91,29.79,29.69,10,10,10,12,4,,0.00,5,,6
2011-11-21,46,32,17,29,22,14,93,76,50,30.08,30.02,29.92,10,7,0,8,3,,0.00,3,Fog,131
2011-11-22,57,42,26,28,24,20,78,55,31,30.19,30.05,29.97,10,10,9,12,6,,0.00,3,,115
2011-11-23,68,54,39,27,23,17,56,35,15,29.99,29.82,29.70,10,9,5,22,12,32,0.00,4,,171
2011-11-24,57,46,35,31,24,19,67,43,24,30.01,29.87,29.74,10,10,8,15,6,23,0.00,1,,203
2011-11-25,57,44,28,28,24,19,75,53,27,30.34,30.18,30.03,10,10,10,10,6,,0.00,1,,184
2011-11-26,54,38,21,23,19,12,74,52,29,30.56,30.37,30.34,10,10,10,8,3,,0.00,2,,106
2011-11-27,53,38,24,24,19,13,69,52,29,30.44,30.28,30.22,10,10,10,7,3,,0.00,2,,29
2011-11-28,54,40,27,24,19,14,67,51,26,30.34,30.22,30.17,10,10,9,7,3,,0.00,3,,17
2011-11-29,55,37,19,25,17,10,71,52,28,30.34,30.18,30.07,10,10,8,9,2,,0.00,1,,142
2011-11-30,46,32,19,22,18,12,74,50,31,30.30,30.14,30.02,10,7,1,26,10,37,0.00,4,,6